Airport View

Enter AWOS ICAO identifier for current METAR.

ex. KFNL

KEKS 202035Z AUTO 32010KT 300V360 10SM SCT080 SCT110 20/07 A3002 RMK AO2

20 May 2018 21:00

Frequency: 119.85

Phone: 406-682-3835

Other Area AWOS: KBZN - KDLN - KWYS - KLVM

TAF AMD KEKS 201850Z 2019/2118 VRB04KT P6SM VCTS SCT050CB BKN100 TEMPO 2019/2023 VRB15G30KT -SHRA BKN050 FM210600 16011KT P6SM FEW090 SCT180 FM211700 19006KT P6SM SCT045 BKN080